Time;durP1;ratioP1;P1;durP2;ratioP2;P2;SDS_P1;SDS_P2;PMS_P1;PMS_P2;Temp;Humidity;BMP_temperature;BMP_pressure;BME280_temperature;BME280_humidity;BME280_pressure;Samples;Min_cycle;Max_cycle;Signal;HPM_P1;HPM_P2
2022/06/22 00:02:07;;;;;;;6.08;5.33;;;23.20;79.10;;;;;;1731008;83;21176;-68
2022/06/22 00:04:51;;;;;;;5.42;4.92;;;23.20;79.00;;;;;;1730945;83;21042;-69
2022/06/22 00:07:31;;;;;;;5.62;5.12;;;23.20;78.80;;;;;;1731043;83;21094;-68
2022/06/22 00:10:20;;;;;;;6.28;5.62;;;23.20;78.50;;;;;;1727499;83;21591;-68
2022/06/22 00:12:52;;;;;;;8.23;6.05;;;23.20;78.30;;;;;;1730492;83;21092;-68
2022/06/22 00:15:25;;;;;;;7.20;5.70;;;23.20;78.20;;;;;;1730443;83;21500;-68
2022/06/22 00:17:54;;;;;;;6.65;5.92;;;23.20;78.00;;;;;;1730461;83;21077;-68
2022/06/22 00:20:28;;;;;;;15.95;6.28;;;23.00;78.30;;;;;;1730557;83;21080;-68
2022/06/22 00:23:16;;;;;;;7.10;5.75;;;23.00;78.80;;;;;;1730495;83;21105;-68
2022/06/22 00:25:46;;;;;;;7.85;5.92;;;22.90;79.00;;;;;;1730337;82;21096;-68
2022/06/22 00:28:30;;;;;;;9.20;6.37;;;22.80;79.00;;;;;;1730463;83;21076;-68
2022/06/22 00:31:17;;;;;;;6.50;5.90;;;22.70;79.20;;;;;;1730763;83;21191;-68
2022/06/22 00:34:11;;;;;;;6.30;5.60;;;22.70;79.50;;;;;;1730527;83;21127;-68
2022/06/22 00:36:54;;;;;;;7.60;6.67;;;22.80;79.80;;;;;;1730616;83;21131;-68
2022/06/22 00:39:29;;;;;;;8.18;5.92;;;22.80;79.70;;;;;;1730428;82;21100;-68
2022/06/22 00:42:18;;;;;;;;;;;22.70;79.80;;;;;;1733065;83;21755;-68
2022/06/22 00:44:50;;;;;;;6.40;5.72;;;22.60;80.50;;;;;;1730379;83;20124;-68
2022/06/22 00:47:22;;;;;;;6.85;5.87;;;22.60;79.90;;;;;;1730330;82;21167;-69
2022/06/22 00:49:52;;;;;;;6.97;6.28;;;22.60;80.10;;;;;;1730187;82;21610;-69
2022/06/22 00:52:27;;;;;;;6.75;5.55;;;22.70;80.20;;;;;;1730504;83;21578;-68
2022/06/22 00:54:57;;;;;;;5.60;5.12;;;22.70;80.50;;;;;;1730487;83;21246;-69
2022/06/22 00:57:29;;;;;;;8.10;6.35;;;22.70;80.60;;;;;;1730510;83;21076;-69
2022/06/22 01:00:03;;;;;;;7.47;5.60;;;22.80;80.60;;;;;;1730217;80;21080;-69
2022/06/22 01:02:41;;;;;;;6.00;5.50;;;22.80;80.50;;;;;;1730411;82;21533;-69
2022/06/22 01:05:28;;;;;;;6.47;5.87;;;22.70;80.60;;;;;;1730482;83;21535;-69
2022/06/22 01:08:12;;;;;;;8.30;5.83;;;22.60;80.80;;;;;;1717166;82;21056;-69
2022/06/22 01:10:47;;;;;;;7.37;5.80;;;22.50;81.20;;;;;;1731047;81;21147;-68
2022/06/22 01:13:34;;;;;;;11.65;5.97;;;22.50;81.30;;;;;;1759181;81;21029;-69
2022/06/22 01:16:20;;;;;;;7.65;6.25;;;22.60;81.40;;;;;;1759085;80;21060;-69
2022/06/22 01:19:04;;;;;;;7.03;6.37;;;22.60;81.30;;;;;;1759416;81;21061;-69
2022/06/22 01:21:39;;;;;;;8.53;6.58;;;22.60;81.20;;;;;;1703018;81;21127;-69
2022/06/22 01:24:20;;;;;;;6.62;6.03;;;22.50;81.30;;;;;;1759240;81;21162;-69
2022/06/22 01:27:09;;;;;;;10.98;6.25;;;22.40;81.50;;;;;;1759237;81;21111;-69
2022/06/22 01:29:41;;;;;;;7.37;5.72;;;22.40;81.60;;;;;;1759282;81;21181;-69
2022/06/22 01:32:15;;;;;;;7.47;6.55;;;22.40;82.00;;;;;;1758644;80;21581;-69
2022/06/22 01:34:47;;;;;;;10.08;6.42;;;22.30;82.10;;;;;;1759291;81;21115;-68
2022/06/22 01:37:19;;;;;;;6.78;5.92;;;22.20;82.20;;;;;;1759252;81;21045;-69
2022/06/22 01:39:48;;;;;;;9.35;5.53;;;22.10;82.40;;;;;;1759158;80;21549;-68
2022/06/22 01:42:26;;;;;;;8.18;5.83;;;22.00;82.70;;;;;;1759143;81;21064;-69
2022/06/22 01:45:03;;;;;;;6.70;6.12;;;22.00;82.90;;;;;;1759154;81;21480;-69
2022/06/22 01:47:47;;;;;;;8.70;5.75;;;22.10;82.90;;;;;;1759275;81;21601;-68
2022/06/22 01:50:48;;;;;;;7.83;6.67;;;22.10;82.90;;;;;;1722370;81;21013;-68
2022/06/22 01:53:31;;;;;;;6.15;5.55;;;22.30;82.90;;;;;;1759282;81;21041;-67
2022/06/22 01:56:28;;;;;;;6.58;5.83;;;22.30;82.60;;;;;;1759564;81;21052;-67
2022/06/22 01:59:12;;;;;;;7.42;6.70;;;22.20;82.60;;;;;;1759293;81;21057;-67
2022/06/22 02:02:01;;;;;;;7.40;5.60;;;22.10;82.80;;;;;;1759516;81;21044;-67
2022/06/22 02:04:59;;;;;;;8.78;5.90;;;22.10;82.80;;;;;;1759307;81;21132;-67
2022/06/22 02:07:47;;;;;;;8.48;5.78;;;22.20;83.10;;;;;;1758991;81;21045;-67
2022/06/22 02:10:38;;;;;;;12.73;6.08;;;22.20;82.90;;;;;;1759353;81;21057;-67
2022/06/22 02:13:34;;;;;;;7.35;5.90;;;22.20;83.00;;;;;;1728355;82;21109;-67
2022/06/22 02:16:18;;;;;;;7.75;5.50;;;22.20;83.00;;;;;;1756311;81;21112;-67
2022/06/22 02:18:52;;;;;;;6.75;5.47;;;22.20;82.90;;;;;;1759107;81;21502;-67
2022/06/22 02:21:36;;;;;;;6.92;5.37;;;22.30;83.00;;;;;;1759327;81;21104;-67
2022/06/22 02:24:21;;;;;;;6.28;5.67;;;22.30;83.00;;;;;;1759445;81;21100;-67
2022/06/22 02:26:52;;;;;;;5.50;5.00;;;22.40;82.90;;;;;;1759436;81;21112;-67
2022/06/22 02:29:24;;;;;;;11.65;5.83;;;22.50;82.80;;;;;;1759284;81;21065;-67
2022/06/22 02:31:57;;;;;;;7.58;5.30;;;22.60;82.60;;;;;;1758209;81;21138;-67
2022/06/22 02:34:27;;;;;;;6.80;6.10;;;22.70;82.50;;;;;;1759298;81;21519;-67
2022/06/22 02:36:57;;;;;;;7.22;5.37;;;22.80;82.40;;;;;;1759315;81;21013;-67
2022/06/22 02:39:28;;;;;;;5.58;5.08;;;22.80;82.40;;;;;;1759203;81;21115;-67
2022/06/22 02:44:48;;;;;;;6.03;4.85;;;22.90;82.50;;;;;;1759311;81;21060;-68
2022/06/22 02:47:50;;;;;;;6.10;5.15;;;23.00;82.30;;;;;;1759158;81;21061;-68
2022/06/22 02:50:34;;;;;;;7.35;5.22;;;23.00;82.30;;;;;;1758440;81;21017;-68
2022/06/22 02:53:08;;;;;;;8.05;5.85;;;23.00;82.10;;;;;;1758776;81;21013;-68
2022/06/22 02:55:38;;;;;;;10.08;5.67;;;23.00;82.20;;;;;;1751891;81;21107;-68
2022/06/22 02:58:28;;;;;;;8.15;5.12;;;23.10;82.30;;;;;;1759259;81;21048;-68
2022/06/22 03:00:59;;;;;;;5.80;4.80;;;23.10;82.30;;;;;;1759191;81;21021;-69
2022/06/22 03:03:50;;;;;;;8.28;4.85;;;23.10;82.40;;;;;;1759208;81;21476;-68
2022/06/22 03:06:22;;;;;;;5.75;4.05;;;23.10;82.40;;;;;;1820484;79;21133;-68
2022/06/22 03:08:52;;;;;;;6.45;3.90;;;23.20;82.40;;;;;;1820495;79;21469;-67
2022/06/22 03:11:22;;;;;;;5.12;4.20;;;23.30;82.10;;;;;;1820559;79;21050;-68
2022/06/22 03:13:54;;;;;;;11.10;4.92;;;23.30;81.80;;;;;;1820429;79;21062;-68
2022/06/22 03:16:38;;;;;;;6.55;4.65;;;23.40;81.70;;;;;;1820593;79;21113;-67
2022/06/22 03:19:15;;;;;;;13.60;5.55;;;23.40;81.50;;;;;;1820435;79;21492;-68
2022/06/22 03:21:45;;;;;;;10.60;7.60;;;23.50;81.30;;;;;;1820581;79;21046;-67
2022/06/22 03:24:20;;;;;;;5.37;4.87;;;23.60;81.20;;;;;;1820515;79;21054;-67
2022/06/22 03:26:51;;;;;;;5.30;3.77;;;23.60;81.20;;;;;;1820579;79;21108;-68
2022/06/22 03:29:27;;;;;;;5.87;4.28;;;23.70;81.10;;;;;;1820157;79;21564;-67
2022/06/22 03:31:59;;;;;;;7.53;5.05;;;23.70;81.00;;;;;;1820519;79;21042;-68
2022/06/22 03:34:40;;;;;;;6.95;3.98;;;23.70;80.70;;;;;;1820508;79;21043;-67
2022/06/22 03:37:14;;;;;;;5.58;3.65;;;23.80;80.60;;;;;;1820419;77;21569;-67
2022/06/22 03:39:46;;;;;;;7.90;4.40;;;23.90;80.70;;;;;;1820332;79;21180;-67
2022/06/22 03:42:36;;;;;;;11.10;5.30;;;23.90;80.70;;;;;;1820559;79;21554;-67
2022/06/22 03:45:08;;;;;;;6.15;5.08;;;24.00;80.50;;;;;;1789304;79;21044;-67
2022/06/22 03:47:52;;;;;;;5.10;3.77;;;24.00;80.20;;;;;;1789133;79;21124;-67
2022/06/22 03:50:42;;;;;;;5.12;3.85;;;24.00;80.00;;;;;;1789211;80;21020;-68
2022/06/22 03:53:26;;;;;;;8.73;4.05;;;24.00;80.10;;;;;;1789303;80;21045;-68
2022/06/22 03:55:58;;;;;;;5.65;3.90;;;24.00;80.10;;;;;;1788715;79;21495;-66
2022/06/22 03:58:27;;;;;;;5.78;3.77;;;24.00;80.00;;;;;;1789304;80;21542;-66
2022/06/22 04:00:58;;;;;;;13.30;4.47;;;24.10;79.90;;;;;;1789285;80;21444;-66
2022/06/22 04:03:28;;;;;;;8.13;4.37;;;24.20;79.70;;;;;;1770719;80;21103;-67
2022/06/22 04:06:03;;;;;;;6.53;4.97;;;24.20;79.50;;;;;;1728699;82;21081;-67
2022/06/22 04:08:36;;;;;;;8.53;4.17;;;24.30;79.30;;;;;;1765603;81;21130;-67
2022/06/22 04:11:11;;;;;;;4.87;3.87;;;24.30;79.30;;;;;;1728833;83;21570;-67
2022/06/22 04:13:52;;;;;;;7.15;3.75;;;24.40;79.30;;;;;;1765422;80;21077;-67
2022/06/22 04:16:23;;;;;;;8.80;4.05;;;24.40;79.20;;;;;;1728704;83;21152;-67
2022/06/22 04:18:58;;;;;;;6.25;4.30;;;24.50;79.10;;;;;;1761696;81;21070;-67
2022/06/22 04:21:30;;;;;;;9.63;3.55;;;24.60;79.10;;;;;;1728816;83;21649;-67
2022/06/22 04:24:04;;;;;;;7.83;4.42;;;24.60;78.80;;;;;;1765407;81;21587;-67
2022/06/22 04:26:37;;;;;;;12.15;4.08;;;24.60;78.90;;;;;;1751319;81;21128;-67
2022/06/22 04:29:27;;;;;;;5.37;3.65;;;24.60;79.00;;;;;;1739861;82;21547;-67
2022/06/22 04:32:22;;;;;;;6.75;3.25;;;24.80;78.70;;;;;;1735551;81;21147;-67
2022/06/22 04:35:03;;;;;;;7.75;3.65;;;24.90;77.50;;;;;;1745045;81;21138;-67
2022/06/22 04:37:38;;;;;;;8.28;3.50;;;24.90;76.70;;;;;;1752594;82;21045;-67
2022/06/22 04:40:16;;;;;;;11.12;3.20;;;25.00;76.30;;;;;;1736808;81;21164;-67
2022/06/22 04:42:46;;;;;;;5.85;3.20;;;25.00;75.80;;;;;;1736767;82;21066;-68
2022/06/22 04:45:25;;;;;;;6.65;3.17;;;25.10;75.80;;;;;;1736610;82;21200;-68
2022/06/22 04:47:55;;;;;;;7.53;3.37;;;25.20;75.00;;;;;;1736788;82;21074;-69
2022/06/22 04:50:26;;;;;;;4.17;3.02;;;25.40;74.40;;;;;;1736731;82;21077;-68
2022/06/22 04:52:57;;;;;;;13.18;3.50;;;25.40;73.30;;;;;;1716348;82;21084;-68
2022/06/22 04:55:46;;;;;;;7.35;3.37;;;25.40;72.90;;;;;;1739601;82;21501;-68
2022/06/22 04:58:30;;;;;;;4.22;3.05;;;25.30;73.00;;;;;;1711202;83;21085;-68
2022/06/22 05:01:00;;;;;;;3.60;3.10;;;25.30;73.10;;;;;;1711319;83;21054;-68
2022/06/22 05:03:31;;;;;;;4.12;3.25;;;25.20;73.30;;;;;;1711015;83;21207;-68
2022/06/22 05:06:03;;;;;;;9.05;5.10;;;25.20;73.50;;;;;;1711009;82;21247;-68
2022/06/22 05:08:38;;;;;;;5.45;3.77;;;25.10;73.70;;;;;;1711050;84;21074;-69
2022/06/22 05:11:13;;;;;;;9.70;4.05;;;25.10;73.70;;;;;;1709709;83;21394;-68
2022/06/22 05:13:48;;;;;;;17.05;6.92;;;25.10;73.80;;;;;;1711044;83;21164;-68
2022/06/22 05:16:26;;;;;;;6.15;3.55;;;25.20;74.10;;;;;;1710969;83;21158;-68
2022/06/22 05:18:56;;;;;;;10.15;3.35;;;25.40;74.10;;;;;;1711002;83;21074;-68
2022/06/22 05:21:43;;;;;;;6.58;3.85;;;25.60;73.80;;;;;;1711100;84;21156;-68
2022/06/22 05:24:26;;;;;;;6.95;3.58;;;25.70;73.60;;;;;;1711122;83;21109;-68
2022/06/22 05:26:57;;;;;;;9.93;4.37;;;25.70;73.30;;;;;;1711003;84;21082;-68
2022/06/22 05:29:41;;;;;;;11.55;3.87;;;25.80;72.70;;;;;;1711129;83;21081;-68
2022/06/22 05:32:13;;;;;;;4.83;3.15;;;25.80;71.90;;;;;;1711238;84;21181;-68
2022/06/22 05:34:45;;;;;;;6.70;3.17;;;25.70;71.60;;;;;;1710250;83;21524;-68
2022/06/22 05:37:20;;;;;;;7.75;4.20;;;25.70;71.60;;;;;;1711132;83;21109;-68
2022/06/22 05:39:50;;;;;;;6.22;3.17;;;25.60;71.80;;;;;;1711092;84;21110;-68
2022/06/22 05:42:19;;;;;;;6.17;3.80;;;25.70;71.90;;;;;;1711080;83;21150;-68
2022/06/22 05:44:48;;;;;;;11.63;3.80;;;25.60;71.80;;;;;;1711058;83;21198;-68
2022/06/22 06:00:52;;;;;;;7.65;3.60;;;25.50;71.20;;;;;;1958705;73;22106;-68
2022/06/22 06:03:29;;;;;;;3.98;3.00;;;26.20;71.60;;;;;;1918318;75;21514;-68
2022/06/22 06:06:17;;;;;;;11.63;3.40;;;26.20;70.90;;;;;;1918343;73;21031;-68
2022/06/22 06:08:49;;;;;;;10.28;3.90;;;26.20;70.60;;;;;;1916907;74;21014;-68
2022/06/22 06:11:24;;;;;;;8.38;6.08;;;26.20;70.30;;;;;;1918341;75;21447;-69
2022/06/22 06:13:59;;;;;;;7.22;3.83;;;26.20;70.20;;;;;;1918352;75;21086;-69
2022/06/22 06:16:33;;;;;;;8.15;3.40;;;26.20;70.40;;;;;;1918353;75;21043;-69
2022/06/22 06:19:05;;;;;;;5.95;3.65;;;26.20;70.30;;;;;;1917822;74;21022;-69
2022/06/22 06:21:37;;;;;;;4.78;3.25;;;26.10;70.20;;;;;;1918313;73;21167;-68
2022/06/22 06:24:08;;;;;;;5.30;2.55;;;26.10;70.40;;;;;;1918229;74;21018;-68
2022/06/22 06:29:58;;;;;;;4.65;3.27;;;26.30;69.60;;;;;;1918214;75;21042;-68
2022/06/22 06:32:54;;;;;;;8.58;3.90;;;26.30;69.40;;;;;;1918401;73;21046;-68
2022/06/22 06:35:44;;;;;;;7.12;3.52;;;26.30;69.60;;;;;;1918358;74;21011;-67
2022/06/22 06:38:25;;;;;;;6.10;3.27;;;26.10;69.40;;;;;;1901339;74;20998;-68
2022/06/22 06:41:01;;;;;;;8.30;4.55;;;26.00;69.90;;;;;;1905509;74;21035;-68
2022/06/22 06:43:42;;;;;;;11.15;4.03;;;26.00;70.10;;;;;;1918452;74;21020;-68
2022/06/22 06:46:31;;;;;;;7.55;4.00;;;25.90;70.50;;;;;;1918380;73;21100;-68
2022/06/22 06:49:03;;;;;;;5.37;3.90;;;25.90;71.00;;;;;;1918138;75;21093;-68
2022/06/22 06:51:34;;;;;;;9.55;3.47;;;26.10;71.10;;;;;;1916375;74;21536;-69
2022/06/22 06:54:12;;;;;;;10.68;4.47;;;26.20;70.60;;;;;;1918284;75;21035;-68
2022/06/22 06:56:44;;;;;;;7.17;3.33;;;26.40;70.30;;;;;;1916157;74;21101;-68
2022/06/22 06:59:22;;;;;;;6.60;3.05;;;26.60;69.60;;;;;;1919139;74;21565;-68
2022/06/22 07:04:41;;;;;;;3.90;2.87;;;26.80;67.80;;;;;;1976990;72;21021;-68
2022/06/22 07:07:47;;;;;;;12.05;3.45;;;26.90;67.80;;;;;;1976943;72;21044;-76
2022/06/22 07:10:19;;;;;;;3.95;2.75;;;27.00;68.00;;;;;;1976855;72;21029;-68
2022/06/22 07:13:00;;;;;;;5.85;3.37;;;27.10;67.90;;;;;;1976295;72;21033;-68
2022/06/22 07:15:39;;;;;;;15.35;3.67;;;27.20;67.40;;;;;;1976075;72;21044;-68
2022/06/22 07:18:26;;;;;;;10.93;3.92;;;27.30;67.40;;;;;;1976238;72;21500;-68
2022/06/22 07:21:20;;;;;;;8.13;3.33;;;27.50;66.80;;;;;;1976166;72;21036;-68
2022/06/22 07:23:54;;;;;;;7.35;4.67;;;27.50;66.00;;;;;;1976188;72;21009;-68
2022/06/22 07:26:32;;;;;;;8.68;3.17;;;27.50;66.60;;;;;;1976385;72;21544;-68
2022/06/22 07:29:07;;;;;;;6.85;3.70;;;27.50;66.00;;;;;;1970307;72;21090;-68
2022/06/22 07:31:39;;;;;;;10.15;3.00;;;27.40;65.70;;;;;;1975575;72;21016;-68
2022/06/22 07:34:22;;;;;;;5.50;2.95;;;27.40;65.80;;;;;;1976320;72;21013;-68
2022/06/22 07:37:00;;;;;;;9.13;3.10;;;27.40;65.40;;;;;;1974336;72;20993;-69
2022/06/22 07:39:36;;;;;;;5.28;2.98;;;27.50;65.60;;;;;;1976244;72;21090;-68
2022/06/22 07:42:05;;;;;;;5.70;2.83;;;27.60;63.90;;;;;;1976193;72;21118;-68
2022/06/22 07:44:35;;;;;;;8.08;3.00;;;27.60;62.80;;;;;;1976155;72;21099;-68
2022/06/22 07:47:09;;;;;;;4.78;2.58;;;27.60;62.40;;;;;;1976294;72;21017;-68
2022/06/22 07:49:51;;;;;;;;;;;27.60;62.50;;;;;;1950394;72;21017;-69
2022/06/22 07:52:23;;;;;;;6.60;2.83;;;27.70;61.20;;;;;;1976158;72;20139;-69
2022/06/22 07:54:57;;;;;;;4.17;2.77;;;27.80;62.30;;;;;;1976153;72;21153;-69
2022/06/22 07:57:33;;;;;;;3.35;2.50;;;27.80;61.00;;;;;;1976137;72;21576;-69
2022/06/22 08:00:14;;;;;;;9.18;3.27;;;27.60;60.60;;;;;;1975017;72;21027;-69
2022/06/22 08:03:05;;;;;;;6.87;2.42;;;27.60;61.10;;;;;;1976383;72;21037;-69
2022/06/22 08:05:37;;;;;;;4.55;2.45;;;27.70;61.10;;;;;;1976877;72;21017;-69
2022/06/22 08:08:11;;;;;;;3.75;2.85;;;27.80;60.90;;;;;;1978946;72;21045;-69
2022/06/22 08:10:46;;;;;;;3.72;2.02;;;27.90;60.60;;;;;;1977648;72;21482;-69
2022/06/22 08:13:23;;;;;;;4.70;2.62;;;28.00;60.10;;;;;;1979018;72;21072;-69
2022/06/22 08:15:58;;;;;;;4.17;2.80;;;28.10;59.80;;;;;;1977841;71;21021;-68
2022/06/22 08:18:29;;;;;;;3.40;2.50;;;28.20;59.30;;;;;;1979095;72;21516;-68
2022/06/22 08:20:59;;;;;;;4.42;2.30;;;28.20;59.10;;;;;;1978990;72;21012;-69
2022/06/22 08:23:31;;;;;;;4.80;2.42;;;28.30;59.00;;;;;;1979015;72;21024;-69
2022/06/22 08:26:06;;;;;;;6.83;4.08;;;28.30;58.70;;;;;;1979172;71;21009;-69
2022/06/22 08:28:38;;;;;;;3.00;2.40;;;28.30;59.10;;;;;;1978812;72;21068;-69
2022/06/22 08:31:08;;;;;;;8.25;2.75;;;28.30;58.30;;;;;;1978945;72;21028;-70
2022/06/22 08:33:43;;;;;;;3.02;2.30;;;28.40;58.20;;;;;;1978943;72;21040;-70
2022/06/22 08:36:21;;;;;;;2.45;2.22;;;28.40;57.60;;;;;;1978984;72;21078;-69
2022/06/22 08:39:15;;;;;;;2.70;2.20;;;28.50;57.10;;;;;;1978427;71;21486;-69
2022/06/22 08:42:04;;;;;;;10.20;2.95;;;28.50;56.00;;;;;;1970364;72;21475;-64
2022/06/22 08:44:56;;;;;;;3.52;1.90;;;28.50;56.50;;;;;;1978131;72;21028;-71
2022/06/22 08:48:01;;;;;;;7.03;2.47;;;28.60;56.70;;;;;;1978038;72;21150;-66
2022/06/22 08:50:48;;;;;;;7.72;2.75;;;28.60;55.70;;;;;;1978317;71;21029;-67
2022/06/22 08:53:52;;;;;;;5.03;3.05;;;28.70;55.40;;;;;;1976561;72;21088;-67
2022/06/22 08:56:30;;;;;;;3.47;2.85;;;28.90;55.50;;;;;;1978238;71;21033;-69
2022/06/22 08:59:20;;;;;;;4.55;3.30;;;29.00;55.90;;;;;;1977784;72;21044;-68
2022/06/22 09:02:10;;;;;;;7.12;2.85;;;29.00;56.20;;;;;;1970227;71;21471;-63
2022/06/22 09:04:49;;;;;;;5.05;2.95;;;29.00;56.10;;;;;;1908605;74;21068;-67
2022/06/22 09:07:37;;;;;;;5.67;2.80;;;29.00;56.30;;;;;;1908083;75;21056;-68
2022/06/22 09:10:26;;;;;;;2.95;2.60;;;29.00;56.20;;;;;;1908299;74;21482;-69
2022/06/22 09:13:25;;;;;;;5.47;2.80;;;29.10;55.90;;;;;;1908849;75;21060;-67
2022/06/22 09:15:57;;;;;;;3.35;2.52;;;29.20;55.90;;;;;;1908672;74;21021;-64
2022/06/22 09:18:48;;;;;;;7.00;3.65;;;29.30;55.00;;;;;;1908516;75;21001;-62
2022/06/22 09:21:53;;;;;;;4.95;3.25;;;29.40;54.60;;;;;;1909012;75;21092;-62
2022/06/22 09:24:41;;;;;;;5.58;3.33;;;29.60;54.90;;;;;;1885468;76;21102;-63
2022/06/22 09:27:22;;;;;;;4.40;2.80;;;29.70;54.80;;;;;;1904500;75;21103;-59
2022/06/22 09:29:56;;;;;;;4.22;2.22;;;29.80;54.60;;;;;;1908700;75;21170;-63
2022/06/22 09:32:37;;;;;;;5.15;2.58;;;29.90;53.70;;;;;;1908008;75;21138;-70
2022/06/22 09:35:25;;;;;;;3.90;3.10;;;29.90;53.60;;;;;;1907784;75;21052;-67
2022/06/22 09:38:18;;;;;;;6.62;3.05;;;29.90;53.70;;;;;;1908620;75;21158;-63
2022/06/22 09:40:53;;;;;;;7.00;3.17;;;30.00;53.50;;;;;;1907991;74;21575;-71
2022/06/22 09:43:30;;;;;;;4.58;2.52;;;30.00;53.30;;;;;;1908041;75;21557;-65
2022/06/22 09:46:19;;;;;;;6.55;2.95;;;30.10;52.80;;;;;;1908663;75;21482;-66
2022/06/22 09:48:54;;;;;;;4.58;2.87;;;30.20;53.00;;;;;;1908571;74;21040;-65
2022/06/22 09:51:32;;;;;;;9.05;7.42;;;30.30;53.50;;;;;;1908094;74;21068;-66
2022/06/22 09:57:31;;;;;;;6.30;3.02;;;30.30;53.20;;;;;;1908708;74;21103;-62
2022/06/22 10:00:08;;;;;;;5.72;2.92;;;30.20;53.00;;;;;;1907686;75;21091;-61
2022/06/22 10:02:42;;;;;;;8.73;3.20;;;30.30;52.50;;;;;;1907958;74;21126;-63
2022/06/22 10:05:29;;;;;;;3.62;2.62;;;30.30;52.10;;;;;;1909395;75;21017;-62
2022/06/22 10:08:28;;;;;;;4.37;2.40;;;30.20;51.60;;;;;;1908987;75;21048;-68
2022/06/22 10:11:03;;;;;;;4.65;2.75;;;30.30;51.90;;;;;;1908847;74;21090;-62
2022/06/22 10:14:06;;;;;;;8.08;4.97;;;30.30;50.70;;;;;;1908777;75;21627;-62
2022/06/22 10:16:47;;;;;;;4.65;2.67;;;30.20;50.50;;;;;;1909357;75;21104;-63
2022/06/22 10:19:36;;;;;;;5.90;2.37;;;30.00;50.30;;;;;;1909181;74;21490;-64
2022/06/22 10:22:25;;;;;;;6.30;3.17;;;30.00;50.10;;;;;;1909318;75;21115;-69
2022/06/22 10:24:57;;;;;;;11.22;4.40;;;30.00;49.90;;;;;;1908315;75;21057;-68
2022/06/22 10:28:01;;;;;;;5.85;2.80;;;30.00;49.40;;;;;;1908235;75;21597;-68
2022/06/22 10:30:40;;;;;;;6.62;3.05;;;29.80;48.80;;;;;;1909289;75;21107;-66
2022/06/22 10:33:17;;;;;;;7.20;3.77;;;29.60;49.50;;;;;;1908505;75;21519;-61
2022/06/22 10:36:06;;;;;;;34.75;5.53;;;29.40;51.20;;;;;;1895266;75;21048;-66
2022/06/22 10:39:00;;;;;;;6.12;3.52;;;29.20;52.30;;;;;;1908571;74;21528;-62
2022/06/22 10:45:11;;;;;;;11.65;6.85;;;28.40;57.60;;;;;;1894296;75;21843;-60
2022/06/22 10:47:49;;;;;;;6.30;4.60;;;28.00;60.00;;;;;;1909364;75;21052;-61
2022/06/22 10:50:36;;;;;;;5.53;4.10;;;27.50;62.50;;;;;;1909405;75;21049;-62
2022/06/22 10:53:42;;;;;;;4.80;4.40;;;27.10;64.80;;;;;;1909572;75;21001;-65
2022/06/22 10:56:31;;;;;;;5.50;4.40;;;26.70;66.60;;;;;;1909320;75;21099;-65
2022/06/22 10:59:26;;;;;;;9.30;4.72;;;26.40;67.50;;;;;;1909418;75;21049;-65
2022/06/22 11:02:16;;;;;;;5.47;4.47;;;26.20;68.60;;;;;;1909389;74;21079;-62
2022/06/22 11:04:54;;;;;;;7.20;4.58;;;26.20;69.70;;;;;;1904847;74;21064;-64
2022/06/22 11:07:32;;;;;;;7.67;4.08;;;26.30;70.90;;;;;;1901015;75;21487;-72
2022/06/22 11:10:16;;;;;;;9.73;3.45;;;26.40;70.50;;;;;;1902342;75;21034;-71
2022/06/22 11:13:20;;;;;;;5.20;3.33;;;26.50;70.00;;;;;;1901625;75;21072;-76
2022/06/22 11:16:25;;;;;;;6.12;3.83;;;26.70;69.50;;;;;;1902668;75;21021;-77
2022/06/22 11:19:10;;;;;;;3.75;3.37;;;26.90;68.90;;;;;;1902365;75;21033;-77
2022/06/22 11:22:04;;;;;;;5.78;3.60;;;27.10;67.90;;;;;;1902390;75;21092;-69
2022/06/22 11:24:42;;;;;;;6.15;3.95;;;27.20;67.60;;;;;;1902239;75;21021;-65
2022/06/22 11:33:33;;;;;;;5.50;4.22;;;27.70;64.80;;;;;;1902395;75;21057;-76
2022/06/22 11:36:28;;;;;;;3.98;3.47;;;27.80;64.50;;;;;;1902570;75;21041;-76
2022/06/22 11:39:22;;;;;;;4.42;3.77;;;28.00;64.70;;;;;;1902479;75;21045;-77
2022/06/22 11:42:15;;;;;;;5.10;4.03;;;28.20;63.70;;;;;;1902893;75;21467;-76
2022/06/22 11:48:11;;;;;;;4.92;3.98;;;28.40;61.40;;;;;;1902379;74;21041;-73
2022/06/22 11:51:04;;;;;;;6.17;3.98;;;28.60;60.30;;;;;;1901517;74;21111;-65
2022/06/22 11:53:45;;;;;;;14.33;4.58;;;28.80;59.10;;;;;;1902074;75;21174;-68
2022/06/22 11:56:37;;;;;;;7.28;3.00;;;28.70;60.00;;;;;;1902521;74;21065;-73
2022/06/22 11:59:42;;;;;;;7.83;4.33;;;28.40;61.10;;;;;;1902293;75;21096;-70
2022/06/22 12:02:21;;;;;;;;;;;28.10;62.00;;;;;;1905044;75;21037;-71
2022/06/22 12:05:08;;;;;;;9.60;3.08;;;27.90;62.60;;;;;;1906305;75;20098;-72
2022/06/22 12:07:55;;;;;;;6.55;3.15;;;27.70;62.40;;;;;;1912322;75;21202;-65
2022/06/22 12:11:00;;;;;;;6.53;3.72;;;27.60;62.70;;;;;;1912251;75;21150;-78
2022/06/22 12:17:10;;;;;;;14.45;4.80;;;27.50;63.00;;;;;;1912136;74;21064;-67
2022/06/22 12:19:47;;;;;;;11.95;4.95;;;27.50;63.40;;;;;;1911826;74;21001;-62
2022/06/22 12:22:22;;;;;;;8.18;5.33;;;27.50;63.40;;;;;;1910096;75;21065;-66
2022/06/22 12:25:03;;;;;;;13.45;4.55;;;27.40;63.50;;;;;;1912109;74;21092;-72
2022/06/22 12:27:41;;;;;;;8.50;4.83;;;27.40;63.40;;;;;;1911709;74;21533;-63
2022/06/22 12:30:18;;;;;;;12.45;4.97;;;27.40;63.60;;;;;;1923179;73;21076;-62
2022/06/22 12:33:06;;;;;;;5.97;3.42;;;27.40;63.80;;;;;;1933512;73;21085;-72
2022/06/22 12:35:51;;;;;;;10.88;4.45;;;27.40;64.00;;;;;;1933064;73;21077;-64
2022/06/22 12:38:23;;;;;;;;;;;27.30;63.90;;;;;;1936344;74;21315;-68
2022/06/22 12:41:07;;;;;;;7.30;3.62;;;27.30;64.20;;;;;;1932964;73;20181;-67
2022/06/22 12:44:11;;;;;;;8.55;3.95;;;27.30;63.60;;;;;;1933910;74;21082;-65
2022/06/22 12:46:59;;;;;;;10.63;4.20;;;27.30;63.60;;;;;;1934251;74;21107;-65
2022/06/22 12:49:47;;;;;;;11.90;5.10;;;27.30;63.30;;;;;;1934168;74;21049;-65
2022/06/22 12:52:34;;;;;;;18.90;6.60;;;27.30;63.30;;;;;;1934034;74;21088;-69
2022/06/22 12:55:07;;;;;;;7.17;2.30;;;27.20;62.70;;;;;;1932709;73;21154;-66
2022/06/22 12:57:45;;;;;;;9.43;3.02;;;27.00;62.70;;;;;;1934167;74;21493;-66
2022/06/22 13:00:20;;;;;;;4.40;2.33;;;27.00;62.80;;;;;;1880507;75;21040;-66
2022/06/22 13:02:51;;;;;;;7.35;2.90;;;27.00;62.80;;;;;;1934004;74;21057;-67
2022/06/22 13:05:26;;;;;;;7.60;2.98;;;27.00;62.10;;;;;;1934129;74;21095;-66
2022/06/22 13:07:59;;;;;;;9.33;3.22;;;27.00;62.60;;;;;;1934046;74;21103;-65
2022/06/22 13:10:31;;;;;;;9.68;2.45;;;27.00;61.90;;;;;;1934085;74;21021;-66
2022/06/22 13:13:09;;;;;;;9.18;2.60;;;27.00;61.70;;;;;;1934152;74;21045;-70
2022/06/22 13:15:41;;;;;;;4.35;2.35;;;27.00;61.50;;;;;;1933233;73;21111;-65
2022/06/22 13:18:25;;;;;;;8.60;2.65;;;27.00;61.00;;;;;;1933977;73;21548;-64
2022/06/22 13:21:06;;;;;;;20.82;7.45;;;27.10;60.90;;;;;;1934275;74;21017;-65
2022/06/22 13:23:53;;;;;;;20.05;8.43;;;27.00;60.30;;;;;;1933427;74;21026;-64
2022/06/22 13:26:42;;;;;;;25.12;8.90;;;26.90;59.60;;;;;;1933172;73;21061;-65
2022/06/22 13:29:14;;;;;;;21.40;9.18;;;26.80;60.40;;;;;;1930281;74;21573;-66
2022/06/22 13:31:44;;;;;;;22.55;8.00;;;26.70;60.50;;;;;;1923394;74;21017;-65
2022/06/22 13:34:16;;;;;;;5.65;2.50;;;26.70;59.60;;;;;;1924688;74;21068;-64
2022/06/22 13:36:50;;;;;;;9.80;3.25;;;26.70;59.20;;;;;;1922360;74;21013;-66
2022/06/22 13:39:20;;;;;;;;;;;26.60;59.00;;;;;;1926034;74;21014;-66
2022/06/22 13:41:52;;;;;;;3.10;1.87;;;26.50;58.20;;;;;;1924644;74;20107;-66
2022/06/22 13:44:27;;;;;;;18.20;7.08;;;26.50;58.10;;;;;;1924608;74;20994;-66
2022/06/22 13:47:07;;;;;;;47.30;23.73;;;26.50;57.30;;;;;;1907614;74;21018;-66
2022/06/22 13:49:40;;;;;;;14.07;5.47;;;26.50;56.30;;;;;;1924109;74;21525;-66
2022/06/22 13:52:31;;;;;;;9.18;2.05;;;26.50;55.90;;;;;;1924621;74;21424;-66
2022/06/22 13:55:13;;;;;;;7.70;2.15;;;26.50;55.00;;;;;;1924673;74;21041;-67
2022/06/22 13:57:51;;;;;;;9.35;2.12;;;26.50;54.60;;;;;;1923499;74;21045;-66
2022/06/22 14:00:26;;;;;;;5.37;1.62;;;26.50;55.50;;;;;;1924634;74;21033;-66
2022/06/22 14:03:16;;;;;;;4.95;2.00;;;26.50;55.00;;;;;;1924676;74;21037;-66
2022/06/22 14:05:59;;;;;;;8.45;2.67;;;26.50;55.00;;;;;;1924521;74;21087;-66
2022/06/22 14:08:31;;;;;;;4.70;1.80;;;26.40;54.10;;;;;;1922510;74;21083;-66
2022/06/22 14:11:09;;;;;;;8.63;2.00;;;26.40;53.30;;;;;;1924663;74;21819;-66
2022/06/22 14:13:44;;;;;;;5.12;2.35;;;26.40;53.90;;;;;;1924744;74;21030;-67
2022/06/22 14:16:31;;;;;;;4.78;1.67;;;26.50;53.30;;;;;;1924713;74;21460;-67
2022/06/22 14:19:15;;;;;;;6.37;2.10;;;26.50;53.20;;;;;;1924620;74;21010;-67
2022/06/22 14:22:03;;;;;;;2.05;1.70;;;26.50;53.50;;;;;;1924879;74;21104;-67
2022/06/22 14:24:37;;;;;;;2.40;1.75;;;26.50;53.60;;;;;;1924822;74;21071;-67
2022/06/22 14:27:24;;;;;;;2.77;1.40;;;26.50;53.80;;;;;;1924767;74;21010;-67
2022/06/22 14:30:09;;;;;;;2.72;2.35;;;26.60;53.30;;;;;;1928193;73;21070;-67
2022/06/22 14:32:58;;;;;;;3.75;1.70;;;26.60;52.60;;;;;;1934084;74;21599;-67
2022/06/22 14:35:42;;;;;;;4.00;1.60;;;26.50;52.00;;;;;;1933375;73;21531;-67